createdAt,value
2018-03-06T00:00:05.170Z,36.67
2018-03-06T00:02:31.241Z,36.97
2018-03-06T00:04:57.376Z,36.53
2018-03-06T00:07:23.385Z,39.63
2018-03-06T00:09:49.426Z,37.07
2018-03-06T00:12:15.430Z,36.83
2018-03-06T00:14:41.461Z,36.60
2018-03-06T00:17:07.447Z,33.97
2018-03-06T00:19:33.497Z,35.20
2018-03-06T00:21:59.586Z,37.03
2018-03-06T00:24:25.603Z,37.70
2018-03-06T00:26:51.761Z,33.93
2018-03-06T00:29:17.793Z,38.30
2018-03-06T00:31:43.820Z,37.77
2018-03-06T00:34:09.834Z,36.57
2018-03-06T00:36:35.902Z,35.77
2018-03-06T00:39:01.908Z,36.43
2018-03-06T00:41:27.938Z,36.33
2018-03-06T00:43:53.950Z,35.00
2018-03-06T00:46:19.962Z,35.27
2018-03-06T00:48:45.985Z,35.57
2018-03-06T00:51:12.010Z,30.53
2018-03-06T00:53:38.034Z,34.83
2018-03-06T00:56:04.174Z,38.33
2018-03-06T00:58:30.232Z,33.13
2018-03-06T01:00:56.273Z,34.97
2018-03-06T01:03:22.305Z,37.27
2018-03-06T01:05:48.365Z,35.00
2018-03-06T01:08:14.401Z,32.60
2018-03-06T01:10:40.469Z,36.90
2018-03-06T01:13:06.512Z,34.17
2018-03-06T01:15:32.539Z,36.00
2018-03-06T01:17:58.549Z,38.90
2018-03-06T01:20:24.632Z,38.17
2018-03-06T01:22:50.668Z,34.90
2018-03-06T01:25:16.708Z,38.40
2018-03-06T01:27:42.741Z,34.27
2018-03-06T01:30:08.933Z,35.90
2018-03-06T01:32:34.995Z,35.90
2018-03-06T01:35:01.017Z,38.63
2018-03-06T01:37:27.030Z,37.43
2018-03-06T01:39:53.120Z,33.80
2018-03-06T01:42:19.127Z,35.00
2018-03-06T01:44:45.172Z,35.87
2018-03-06T01:47:11.214Z,39.10
2018-03-06T01:49:37.287Z,37.43
2018-03-06T01:52:03.220Z,40.53
2018-03-06T01:54:29.245Z,40.50
2018-03-06T01:56:55.226Z,38.00
2018-03-06T01:59:21.171Z,39.17
2018-03-06T02:01:47.181Z,34.57
2018-03-06T02:04:13.144Z,37.73
2018-03-06T02:06:39.201Z,37.73
2018-03-06T02:09:05.289Z,32.40
2018-03-06T02:11:31.270Z,40.57
2018-03-06T02:13:57.374Z,38.03
2018-03-06T02:16:23.421Z,39.03
2018-03-06T02:18:49.502Z,41.83
2018-03-06T02:21:15.576Z,39.57
2018-03-06T02:23:41.589Z,37.87
2018-03-06T02:26:07.633Z,38.47
2018-03-06T02:28:33.737Z,39.10
2018-03-06T02:30:59.773Z,37.40
2018-03-06T02:33:25.782Z,35.43
2018-03-06T02:35:51.790Z,35.17
2018-03-06T02:38:17.836Z,36.63
2018-03-06T02:40:43.832Z,35.10
2018-03-06T02:43:09.871Z,35.90
2018-03-06T02:45:35.897Z,38.20
2018-03-06T02:48:01.901Z,35.40
2018-03-06T02:50:27.921Z,35.27
2018-03-06T02:52:53.960Z,31.57
2018-03-06T02:55:20.050Z,37.30
2018-03-06T02:57:46.056Z,33.50
2018-03-06T03:00:12.058Z,33.67
2018-03-06T03:02:38.072Z,35.93
2018-03-06T03:05:04.333Z,35.67
2018-03-06T03:07:30.358Z,36.67
2018-03-06T03:09:56.414Z,39.30
2018-03-06T03:12:22.465Z,37.77
2018-03-06T03:14:48.514Z,40.40
2018-03-06T03:17:14.497Z,32.87
2018-03-06T03:19:40.484Z,39.00
2018-03-06T03:22:06.603Z,36.03
2018-03-06T03:24:32.580Z,40.20
2018-03-06T03:26:58.618Z,42.17
2018-03-06T03:29:24.626Z,40.53
2018-03-06T03:31:50.650Z,37.67
2018-03-06T03:34:16.657Z,37.47
2018-03-06T03:36:42.712Z,36.77
2018-03-06T03:39:08.721Z,40.67
2018-03-06T03:41:34.815Z,39.37
2018-03-06T03:44:00.838Z,39.27
2018-03-06T03:46:26.833Z,38.60
2018-03-06T03:48:52.879Z,42.67
2018-03-06T03:51:18.970Z,40.07
2018-03-06T03:53:44.996Z,36.00
2018-03-06T03:56:10.966Z,37.27
2018-03-06T03:58:37.000Z,36.37
2018-03-06T04:01:03.006Z,36.90
2018-03-06T04:03:29.049Z,36.87
2018-03-06T04:05:55.060Z,38.57
2018-03-06T04:08:21.150Z,36.27
2018-03-06T04:10:47.102Z,38.23
2018-03-06T04:13:13.134Z,37.57
2018-03-06T04:15:39.165Z,30.20
2018-03-06T04:18:05.192Z,38.00
2018-03-06T04:20:31.206Z,36.63
2018-03-06T04:22:57.225Z,34.63
2018-03-06T04:25:23.293Z,36.87
2018-03-06T04:27:49.337Z,35.17
2018-03-06T04:30:15.489Z,32.97
2018-03-06T04:32:41.502Z,34.57
2018-03-06T04:35:07.518Z,37.80
2018-03-06T04:37:33.589Z,32.20
2018-03-06T04:39:59.598Z,32.30
2018-03-06T04:42:25.594Z,32.40
2018-03-06T04:44:51.603Z,33.90
2018-03-06T04:47:17.603Z,35.20
2018-03-06T04:49:43.613Z,33.90
2018-03-06T04:52:10.096Z,33.50
2018-03-06T04:54:36.154Z,34.57
2018-03-06T04:57:02.255Z,36.23
2018-03-06T04:59:28.296Z,34.10
2018-03-06T05:01:54.335Z,32.87
2018-03-06T05:04:20.397Z,29.20
2018-03-06T05:06:46.473Z,33.83
2018-03-06T05:09:12.511Z,35.20
2018-03-06T05:11:38.529Z,30.07
2018-03-06T05:14:04.595Z,32.27
2018-03-06T05:16:30.659Z,34.07
2018-03-06T05:18:56.701Z,34.90
2018-03-06T05:21:22.721Z,29.60
2018-03-06T05:23:48.726Z,32.90
2018-03-06T05:26:14.797Z,32.87
2018-03-06T05:28:40.829Z,33.03
2018-03-06T05:31:06.887Z,30.63
2018-03-06T05:33:32.900Z,34.90
2018-03-06T05:35:58.921Z,36.90
2018-03-06T05:38:24.936Z,37.37
2018-03-06T05:40:50.981Z,33.37
2018-03-06T05:43:16.991Z,34.70
2018-03-06T05:45:43.029Z,34.77
2018-03-06T05:48:09.072Z,36.30
2018-03-06T05:50:35.149Z,33.90
2018-03-06T05:53:01.186Z,33.63
2018-03-06T05:55:27.224Z,35.63
2018-03-06T05:57:53.303Z,33.10
2018-03-06T06:00:19.400Z,33.50
2018-03-06T06:02:45.456Z,33.53
2018-03-06T06:05:11.522Z,32.70
2018-03-06T06:07:37.609Z,29.77
2018-03-06T06:10:03.784Z,38.97
2018-03-06T06:12:30.650Z,35.47
2018-03-06T06:14:56.752Z,35.83
2018-03-06T06:17:22.753Z,35.10
2018-03-06T06:19:48.776Z,34.87
2018-03-06T06:22:14.828Z,37.03
2018-03-06T06:24:41.008Z,35.53
2018-03-06T06:27:07.066Z,38.43
2018-03-06T06:29:33.086Z,31.97
2018-03-06T06:31:59.092Z,37.37
2018-03-06T06:34:25.117Z,38.00
2018-03-06T06:36:51.140Z,33.23
2018-03-06T06:39:17.078Z,34.80
2018-03-06T06:41:43.127Z,35.30
2018-03-06T06:44:09.090Z,35.83
2018-03-06T06:46:35.090Z,34.50
2018-03-06T06:49:01.136Z,35.37
2018-03-06T06:51:27.142Z,33.17
2018-03-06T06:53:53.184Z,31.10
2018-03-06T06:56:19.161Z,29.70
2018-03-06T06:58:45.200Z,31.83
2018-03-06T07:01:11.236Z,30.80
2018-03-06T07:03:37.242Z,31.30
2018-03-06T07:06:03.242Z,31.67
2018-03-06T07:08:29.296Z,30.97
2018-03-06T07:10:55.328Z,32.30
2018-03-06T07:13:21.436Z,29.47
2018-03-06T07:15:47.692Z,31.33
2018-03-06T07:18:13.693Z,31.27
2018-03-06T07:20:39.744Z,28.90
2018-03-06T07:23:05.757Z,31.67
2018-03-06T07:25:31.809Z,32.27
2018-03-06T07:27:57.836Z,33.47
2018-03-06T07:30:23.848Z,31.63
2018-03-06T07:32:49.913Z,33.07
2018-03-06T07:35:15.893Z,34.13
2018-03-06T07:37:41.865Z,31.63
2018-03-06T07:40:07.872Z,31.70
2018-03-06T07:42:33.876Z,31.37
2018-03-06T07:44:59.926Z,29.67
2018-03-06T07:47:25.996Z,30.73
2018-03-06T07:49:52.024Z,30.93
2018-03-06T07:52:18.114Z,31.97
2018-03-06T07:54:44.168Z,30.93
2018-03-06T07:57:10.112Z,32.83
2018-03-06T07:59:36.149Z,28.60
2018-03-06T08:02:02.124Z,33.70
2018-03-06T08:04:28.316Z,27.73
2018-03-06T08:06:54.322Z,31.17
2018-03-06T08:09:20.313Z,31.40
2018-03-06T08:11:46.384Z,28.87
2018-03-06T08:14:12.429Z,29.00
2018-03-06T08:16:38.491Z,26.57
2018-03-06T08:19:04.505Z,28.07
2018-03-06T08:21:30.532Z,28.57
2018-03-06T08:23:56.577Z,29.23
2018-03-06T08:26:22.601Z,28.07
2018-03-06T08:28:48.554Z,27.47
2018-03-06T08:31:14.597Z,27.07
2018-03-06T08:33:40.629Z,27.77
2018-03-06T08:36:06.633Z,29.73
2018-03-06T08:38:32.637Z,29.00
2018-03-06T08:40:58.630Z,26.80
2018-03-06T08:43:24.669Z,28.20
2018-03-06T08:45:50.686Z,30.67
2018-03-06T08:48:16.705Z,29.83
2018-03-06T08:50:42.710Z,32.40
2018-03-06T08:53:08.761Z,31.50
2018-03-06T08:55:34.761Z,30.97
2018-03-06T08:58:00.777Z,32.10
2018-03-06T09:00:26.789Z,30.43
2018-03-06T09:02:52.841Z,30.00
2018-03-06T09:05:18.845Z,31.97
2018-03-06T09:07:44.849Z,30.80
2018-03-06T09:10:10.830Z,30.90
2018-03-06T09:12:36.857Z,30.53
2018-03-06T09:15:03.045Z,32.20
2018-03-06T09:17:29.095Z,32.30
2018-03-06T09:19:55.097Z,33.10
2018-03-06T09:22:21.098Z,31.20
2018-03-06T09:24:47.118Z,27.40
2018-03-06T09:27:13.165Z,31.40
2018-03-06T09:29:39.228Z,33.53
2018-03-06T09:32:05.245Z,34.00
2018-03-06T09:34:31.274Z,33.93
2018-03-06T09:36:57.287Z,34.53
2018-03-06T09:39:23.285Z,32.57
2018-03-06T09:41:49.279Z,28.53
2018-03-06T09:44:15.321Z,30.30
2018-03-06T09:46:41.322Z,41.40
2018-03-06T09:49:07.313Z,88.30
2018-03-06T09:51:33.333Z,41.20
2018-03-06T09:53:59.346Z,32.77
2018-03-06T09:56:25.373Z,35.70
2018-03-06T09:58:51.366Z,30.93
2018-03-06T10:01:17.382Z,34.50
2018-03-06T10:03:43.425Z,29.23
2018-03-06T10:06:09.429Z,30.50
2018-03-06T10:08:35.459Z,31.27
2018-03-06T10:11:01.437Z,32.10
2018-03-06T10:13:27.470Z,32.27
2018-03-06T10:15:53.476Z,31.60
2018-03-06T10:18:19.533Z,33.90
2018-03-06T10:20:45.530Z,31.10
2018-03-06T10:23:11.537Z,28.57
2018-03-06T10:25:37.546Z,32.80
2018-03-06T10:28:03.554Z,31.07
2018-03-06T10:30:29.556Z,31.00
2018-03-06T10:32:55.538Z,31.13
2018-03-06T10:35:21.629Z,33.40
2018-03-06T10:37:47.643Z,33.73
2018-03-06T10:40:13.678Z,29.17
2018-03-06T10:42:39.688Z,30.97
2018-03-06T10:45:05.768Z,31.77
2018-03-06T10:47:31.793Z,32.60
2018-03-06T10:49:57.812Z,31.20
2018-03-06T10:52:23.860Z,35.47
2018-03-06T10:54:49.853Z,34.37
2018-03-06T10:57:15.937Z,34.70
2018-03-06T10:59:41.897Z,32.37
2018-03-06T11:02:13.910Z,32.67
2018-03-06T11:04:39.927Z,31.33
2018-03-06T11:07:05.966Z,32.53
2018-03-06T11:09:31.970Z,34.43
2018-03-06T11:11:57.987Z,34.87
2018-03-06T11:14:24.082Z,33.03
2018-03-06T11:16:50.089Z,31.40
2018-03-06T11:19:16.122Z,30.87
2018-03-06T11:21:42.228Z,34.53
2018-03-06T11:24:08.280Z,30.87
2018-03-06T11:26:34.399Z,30.13
2018-03-06T11:29:00.387Z,31.00
2018-03-06T11:31:26.451Z,31.60
2018-03-06T11:33:52.437Z,32.07
2018-03-06T11:36:18.491Z,32.87
2018-03-06T11:38:44.501Z,31.87
2018-03-06T11:41:10.533Z,34.03
2018-03-06T11:43:36.544Z,31.70
2018-03-06T11:46:02.637Z,34.20
2018-03-06T11:48:28.650Z,32.87
2018-03-06T11:50:54.658Z,31.03
2018-03-06T11:53:20.726Z,33.57
2018-03-06T11:55:46.769Z,32.77
2018-03-06T11:58:12.849Z,34.23
2018-03-06T12:00:38.885Z,32.67
2018-03-06T12:03:04.886Z,33.37
2018-03-06T12:05:30.908Z,32.10
2018-03-06T12:07:57.025Z,31.77
2018-03-06T12:10:23.002Z,32.73
2018-03-06T12:12:49.002Z,32.60
2018-03-06T12:15:15.059Z,33.80
2018-03-06T12:17:41.065Z,35.90
2018-03-06T12:20:07.073Z,34.90
2018-03-06T12:22:33.055Z,33.67
2018-03-06T12:24:59.085Z,35.27
2018-03-06T12:27:25.111Z,35.67
2018-03-06T12:29:51.140Z,36.60
2018-03-06T12:32:17.157Z,34.43
2018-03-06T12:34:43.185Z,34.70
2018-03-06T12:37:09.171Z,34.93
2018-03-06T12:39:35.176Z,32.87
2018-03-06T12:42:01.223Z,34.53
2018-03-06T12:44:27.219Z,33.63
2018-03-06T12:46:53.217Z,32.30
2018-03-06T12:49:19.273Z,31.87
2018-03-06T12:51:45.300Z,35.00
2018-03-06T12:54:11.286Z,33.83
2018-03-06T12:56:37.297Z,31.87
2018-03-06T12:59:03.312Z,31.90
2018-03-06T13:01:29.329Z,33.57
2018-03-06T13:03:55.309Z,31.70
2018-03-06T13:06:21.378Z,30.97
2018-03-06T13:08:47.400Z,33.00
2018-03-06T13:11:13.476Z,30.63
2018-03-06T13:13:39.489Z,33.00
2018-03-06T13:16:05.484Z,31.70
2018-03-06T13:18:31.517Z,30.87
2018-03-06T13:20:57.552Z,32.30
2018-03-06T13:23:23.506Z,32.40
2018-03-06T13:25:49.502Z,31.50
2018-03-06T13:28:15.569Z,32.17
2018-03-06T13:30:41.605Z,31.03
2018-03-06T13:33:07.613Z,31.30
2018-03-06T13:35:33.614Z,38.60
2018-03-06T13:37:59.638Z,30.60
2018-03-06T13:40:25.641Z,33.03
2018-03-06T13:42:51.708Z,33.30
2018-03-06T13:45:17.713Z,32.27
2018-03-06T13:47:43.685Z,34.20
2018-03-06T13:50:09.688Z,30.67
2018-03-06T13:52:35.871Z,29.67
2018-03-06T13:55:01.903Z,31.20
2018-03-06T13:57:27.890Z,34.67
2018-03-06T13:59:53.998Z,32.40
2018-03-06T14:02:20.031Z,31.93
2018-03-06T14:04:46.050Z,35.40
2018-03-06T14:07:12.143Z,30.97
2018-03-06T14:09:38.240Z,35.73
2018-03-06T14:12:04.268Z,35.63
2018-03-06T14:14:30.783Z,36.07
2018-03-06T14:16:56.874Z,38.40
2018-03-06T14:19:22.950Z,36.93
2018-03-06T14:21:48.956Z,36.20
2018-03-06T14:24:15.089Z,34.60
2018-03-06T14:26:41.149Z,34.83
2018-03-06T14:29:07.354Z,36.70
2018-03-06T14:31:33.424Z,33.10
2018-03-06T14:33:59.475Z,35.70
2018-03-06T14:36:25.519Z,35.87
2018-03-06T14:38:51.533Z,37.73
2018-03-06T14:41:17.616Z,39.87
2018-03-06T14:43:43.638Z,39.27
2018-03-06T14:46:10.038Z,39.93
2018-03-06T14:48:36.143Z,39.70
2018-03-06T14:51:02.175Z,39.40
2018-03-06T14:53:28.310Z,40.20
2018-03-06T14:55:54.356Z,40.23
2018-03-06T14:58:20.507Z,41.10
2018-03-06T15:00:46.568Z,40.27
2018-03-06T15:03:12.785Z,41.30
2018-03-06T15:05:38.985Z,39.70
2018-03-06T15:08:05.039Z,40.10
2018-03-06T15:10:31.105Z,38.93
2018-03-06T15:12:57.142Z,37.13
2018-03-06T15:15:23.164Z,36.60
2018-03-06T15:17:49.231Z,38.33
2018-03-06T15:20:15.262Z,36.83
2018-03-06T15:22:41.311Z,36.80
2018-03-06T15:25:07.406Z,37.83
2018-03-06T15:27:33.428Z,38.77
2018-03-06T15:30:03.454Z,39.00
2018-03-06T15:32:29.466Z,40.87
2018-03-06T15:34:55.456Z,39.83
2018-03-06T15:37:22.248Z,38.60
2018-03-06T15:40:01.653Z,38.70
2018-03-06T15:42:27.653Z,39.10
2018-03-06T15:44:53.664Z,40.83
2018-03-06T15:47:19.680Z,36.33
2018-03-06T15:49:45.726Z,38.40
2018-03-06T15:52:11.763Z,40.67
2018-03-06T15:54:37.848Z,37.67
2018-03-06T15:57:03.790Z,40.10
2018-03-06T15:59:29.823Z,42.97
2018-03-06T16:01:55.866Z,39.70
2018-03-06T16:04:21.898Z,40.50
2018-03-06T16:06:47.954Z,40.33
2018-03-06T16:09:13.959Z,39.37
2018-03-06T16:11:40.002Z,40.53
2018-03-06T16:14:06.008Z,39.80
2018-03-06T16:16:32.084Z,40.90
2018-03-06T16:18:58.173Z,41.63
2018-03-06T16:21:24.177Z,40.67
2018-03-06T16:23:50.390Z,42.53
2018-03-06T16:26:16.541Z,42.37
2018-03-06T16:28:42.692Z,39.30
2018-03-06T16:31:08.806Z,39.40
2018-03-06T16:33:34.837Z,40.63
2018-03-06T16:36:00.910Z,38.93
2018-03-06T16:38:26.954Z,38.87
2018-03-06T16:40:53.191Z,41.30
2018-03-06T16:43:19.248Z,37.17
2018-03-06T16:45:45.358Z,40.77
2018-03-06T16:48:11.413Z,38.40
2018-03-06T16:50:37.486Z,40.20
2018-03-06T16:53:03.466Z,40.43
2018-03-06T16:55:29.566Z,39.03
2018-03-06T16:57:55.622Z,45.07
2018-03-06T17:00:21.843Z,40.67
2018-03-06T17:02:47.777Z,44.17
2018-03-06T17:05:13.787Z,44.37
2018-03-06T17:07:39.874Z,58.87
2018-03-06T17:10:05.902Z,52.97
2018-03-06T17:12:31.942Z,129.77
2018-03-06T17:14:58.262Z,78.70
2018-03-06T17:17:24.309Z,61.70
2018-03-06T17:19:50.514Z,67.10
2018-03-06T17:22:16.567Z,48.07
2018-03-06T17:24:42.663Z,43.40
2018-03-06T17:27:08.792Z,41.37
2018-03-06T17:29:34.832Z,43.60
2018-03-06T17:32:00.830Z,43.60
2018-03-06T17:34:26.940Z,43.90
2018-03-06T17:36:52.967Z,42.07
2018-03-06T17:39:19.079Z,42.43
2018-03-06T17:41:45.101Z,43.27
2018-03-06T17:44:11.134Z,41.60
2018-03-06T17:46:37.253Z,43.20
2018-03-06T17:49:03.239Z,47.30
2018-03-06T17:51:29.286Z,42.30
2018-03-06T17:53:55.356Z,46.93
2018-03-06T17:56:21.365Z,44.97
2018-03-06T17:58:47.393Z,44.27
2018-03-06T18:01:13.408Z,43.17
2018-03-06T18:03:39.880Z,45.33
2018-03-06T18:06:05.903Z,47.90
2018-03-06T18:08:31.914Z,43.47
2018-03-06T18:10:57.966Z,46.17
2018-03-06T18:13:23.979Z,47.00
2018-03-06T18:15:50.042Z,50.23
2018-03-06T18:18:16.045Z,47.63
2018-03-06T18:20:41.992Z,47.70
2018-03-06T18:23:08.076Z,47.60
2018-03-06T18:25:34.092Z,45.07
2018-03-06T18:28:00.119Z,47.50
2018-03-06T18:30:26.165Z,41.43
2018-03-06T18:32:52.413Z,46.10
2018-03-06T18:35:18.434Z,48.40
2018-03-06T18:37:44.519Z,49.03
2018-03-06T18:40:10.595Z,48.40
2018-03-06T18:42:36.685Z,46.63
2018-03-06T18:45:03.042Z,48.57
2018-03-06T18:47:29.061Z,45.10
2018-03-06T18:50:03.110Z,53.90
2018-03-06T18:52:29.178Z,52.30
2018-03-06T18:54:55.214Z,49.87
2018-03-06T18:57:21.243Z,43.60
2018-03-06T18:59:47.190Z,42.63
2018-03-06T19:02:25.561Z,44.60
2018-03-06T19:05:05.024Z,41.73
2018-03-06T19:07:31.265Z,40.53
2018-03-06T19:09:57.279Z,39.97
2018-03-06T19:12:23.345Z,42.90
2018-03-06T19:14:49.370Z,39.57
2018-03-06T19:17:15.447Z,43.67
2018-03-06T19:19:41.460Z,40.60
2018-03-06T19:22:07.490Z,41.20
2018-03-06T19:24:33.507Z,46.70
2018-03-06T19:26:59.497Z,41.77
2018-03-06T19:29:26.223Z,45.10
2018-03-06T19:31:52.287Z,42.90
2018-03-06T19:34:18.329Z,45.60
2018-03-06T19:36:44.353Z,40.80
2018-03-06T19:39:10.399Z,43.90
2018-03-06T19:41:36.424Z,39.93
2018-03-06T19:44:02.457Z,40.87
2018-03-06T19:46:28.493Z,42.00
2018-03-06T19:48:54.548Z,45.27
2018-03-06T19:51:20.649Z,41.10
2018-03-06T19:53:46.687Z,39.50
2018-03-06T19:56:13.137Z,46.57
2018-03-06T19:58:39.392Z,45.37
2018-03-06T20:01:06.367Z,42.67
2018-03-06T20:03:32.606Z,41.10
2018-03-06T20:05:58.827Z,37.37
2018-03-06T20:08:24.797Z,39.80
2018-03-06T20:10:50.951Z,40.40
2018-03-06T20:13:17.024Z,42.37
2018-03-06T20:15:43.167Z,40.80
2018-03-06T20:18:09.329Z,43.00
2018-03-06T20:20:35.515Z,40.10
2018-03-06T20:23:01.578Z,40.30
2018-03-06T20:25:33.811Z,40.53
2018-03-06T20:27:59.976Z,39.90
2018-03-06T20:30:31.960Z,39.93
2018-03-06T20:33:04.151Z,38.40
2018-03-06T20:35:30.192Z,41.97
2018-03-06T20:37:56.226Z,39.77
2018-03-06T20:40:28.178Z,51.13
2018-03-06T20:42:54.170Z,46.60
2018-03-06T20:45:20.407Z,39.10
2018-03-06T20:47:46.447Z,39.90
2018-03-06T20:50:12.552Z,44.20
2018-03-06T20:52:44.720Z,39.33
2018-03-06T20:55:10.750Z,45.77
2018-03-06T20:57:37.126Z,42.30
2018-03-06T21:00:03.456Z,41.10
2018-03-06T21:02:55.589Z,38.40
2018-03-06T21:13:52.689Z,43.10
2018-03-06T21:16:18.716Z,40.83
2018-03-06T21:18:44.821Z,41.87
2018-03-06T21:21:10.854Z,43.30
2018-03-06T21:23:36.821Z,45.03
2018-03-06T21:26:02.870Z,41.13
2018-03-06T21:28:28.943Z,42.57
2018-03-06T21:30:54.949Z,39.57
2018-03-06T21:33:20.982Z,36.37
2018-03-06T21:35:47.924Z,41.60
2018-03-06T21:38:13.940Z,39.77
2018-03-06T21:40:39.964Z,44.40
2018-03-06T21:43:05.993Z,42.50
2018-03-06T21:45:31.974Z,40.83
2018-03-06T21:47:57.984Z,43.17
2018-03-06T21:50:24.101Z,40.77
2018-03-06T21:52:50.174Z,41.87
2018-03-06T21:55:16.188Z,42.30
2018-03-06T21:57:42.201Z,45.27
2018-03-06T22:00:08.228Z,44.07
2018-03-06T22:02:34.255Z,46.43
2018-03-06T22:05:00.333Z,42.90
2018-03-06T22:07:26.402Z,41.97
2018-03-06T22:09:52.440Z,42.53
2018-03-06T22:12:18.488Z,41.53
2018-03-06T22:14:44.550Z,44.00
2018-03-06T22:17:10.561Z,44.50
2018-03-06T22:19:36.637Z,44.60
2018-03-06T22:22:02.673Z,39.07
2018-03-06T22:24:28.697Z,47.03
2018-03-06T22:26:54.829Z,46.30
2018-03-06T22:29:20.875Z,45.27
2018-03-06T22:31:46.924Z,43.90
2018-03-06T22:34:12.957Z,43.10
2018-03-06T22:36:38.975Z,44.13
2018-03-06T22:39:04.987Z,42.63
2018-03-06T22:41:30.988Z,42.27
2018-03-06T22:43:57.064Z,41.83
2018-03-06T22:46:23.100Z,43.93
2018-03-06T22:48:49.117Z,40.93
2018-03-06T22:51:15.248Z,42.50
2018-03-06T22:53:41.333Z,42.20
2018-03-06T22:56:07.365Z,44.30
2018-03-06T22:58:33.404Z,39.50
2018-03-06T23:00:59.525Z,40.60
2018-03-06T23:03:25.536Z,40.87
2018-03-06T23:05:51.551Z,40.73
2018-03-06T23:08:17.583Z,43.10
2018-03-06T23:10:43.553Z,42.53
2018-03-06T23:13:09.565Z,41.00
2018-03-06T23:15:35.620Z,42.63
2018-03-06T23:18:01.602Z,38.10
2018-03-06T23:20:27.681Z,45.13
2018-03-06T23:22:53.702Z,44.27
2018-03-06T23:25:19.681Z,47.73
2018-03-06T23:27:45.689Z,45.80
2018-03-06T23:30:11.679Z,40.77
2018-03-06T23:32:37.723Z,41.60
2018-03-06T23:35:03.950Z,45.50
2018-03-06T23:37:29.915Z,43.17
2018-03-06T23:39:55.926Z,43.63
2018-03-06T23:42:22.010Z,46.20
2018-03-06T23:44:48.042Z,46.40
2018-03-06T23:47:14.041Z,43.10
2018-03-06T23:49:40.081Z,44.33
2018-03-06T23:52:06.085Z,45.57
2018-03-06T23:54:32.101Z,44.17
2018-03-06T23:56:58.097Z,42.30
2018-03-06T23:59:24.128Z,43.63
